Walnut Park, California
Current Conditions -  °F | °C
As of 7:47 PM on Tuesday 25 Nov 2014 (Local Time) from KCQT Reporting Station
Clear Clear  
Wind Chill: 62°   Ceiling: Unl
Heat Index: 62°   Visibility: 10mi
Dew Point: 45°   Wind: 0mph
Humidity: 53%   Direction: NA
Pressure: 30.28"   Gusts: NA
Location:  33.977°N, 118.217°W
Report Text: KCQT 260347Z AUTO 00000KT 10SM CLR 17/07 A3028 RMK AO2 SLP251 T01670072
Loading
Personal Weather Stations






























Interactive Weather Map New forecast layout! Learn more

10-Day Weather Forecast

Advertisements
Track Severe Weather on mobile